sensor_id;sensor_type;location;lat;lon;timestamp;pressure;altitude;pressure_sealevel;temperature;humidity
69245;BME280;56357;52.304;4.870;2022-07-12T00:00:15;102659.13;;;22.32;59.07
69245;BME280;56357;52.304;4.870;2022-07-12T00:02:42;102657.72;;;22.34;59.26
69245;BME280;56357;52.304;4.870;2022-07-12T00:05:08;102666.16;;;22.29;58.85
69245;BME280;56357;52.304;4.870;2022-07-12T00:07:35;102663.53;;;22.23;59.23
69245;BME280;56357;52.304;4.870;2022-07-12T00:10:03;102667.00;;;22.30;59.12
69245;BME280;56357;52.304;4.870;2022-07-12T00:12:29;102670.13;;;22.28;59.26
69245;BME280;56357;52.304;4.870;2022-07-12T00:14:56;102664.13;;;22.25;58.79
69245;BME280;56357;52.304;4.870;2022-07-12T00:17:22;102662.09;;;22.20;59.45
69245;BME280;56357;52.304;4.870;2022-07-12T00:19:48;102657.28;;;22.21;58.96
69245;BME280;56357;52.304;4.870;2022-07-12T00:22:16;102668.03;;;22.19;59.33
69245;BME280;56357;52.304;4.870;2022-07-12T00:24:42;102658.97;;;22.17;59.41
69245;BME280;56357;52.304;4.870;2022-07-12T00:27:09;102661.78;;;22.17;59.17
69245;BME280;56357;52.304;4.870;2022-07-12T00:29:35;102660.63;;;22.13;58.89
69245;BME280;56357;52.304;4.870;2022-07-12T00:32:02;102663.63;;;22.06;59.43
69245;BME280;56357;52.304;4.870;2022-07-12T00:34:28;102657.47;;;22.09;59.36
69245;BME280;56357;52.304;4.870;2022-07-12T00:36:55;102668.50;;;22.11;59.27
69245;BME280;56357;52.304;4.870;2022-07-12T00:39:21;102673.59;;;22.14;59.03
69245;BME280;56357;52.304;4.870;2022-07-12T00:41:48;102673.47;;;22.04;59.01
69245;BME280;56357;52.304;4.870;2022-07-12T00:44:15;102668.41;;;22.06;59.11
69245;BME280;56357;52.304;4.870;2022-07-12T00:46:42;102674.06;;;22.06;59.24
69245;BME280;56357;52.304;4.870;2022-07-12T00:49:09;102676.88;;;22.06;59.23
69245;BME280;56357;52.304;4.870;2022-07-12T00:51:38;102674.66;;;22.08;59.13
69245;BME280;56357;52.304;4.870;2022-07-12T00:54:05;102667.31;;;22.07;59.15
69245;BME280;56357;52.304;4.870;2022-07-12T00:56:32;102674.59;;;22.03;59.46
69245;BME280;56357;52.304;4.870;2022-07-12T00:58:58;102677.38;;;21.98;59.46
69245;BME280;56357;52.304;4.870;2022-07-12T01:01:25;102676.22;;;21.99;59.13
69245;BME280;56357;52.304;4.870;2022-07-12T01:03:52;102670.53;;;21.94;59.34
69245;BME280;56357;52.304;4.870;2022-07-12T01:06:20;102672.81;;;21.97;59.50
69245;BME280;56357;52.304;4.870;2022-07-12T01:08:46;102675.06;;;21.95;59.26
69245;BME280;56357;52.304;4.870;2022-07-12T01:11:15;102672.19;;;21.90;59.43
69245;BME280;56357;52.304;4.870;2022-07-12T01:13:43;102673.00;;;21.90;59.53
69245;BME280;56357;52.304;4.870;2022-07-12T01:16:10;102665.13;;;21.92;59.40
69245;BME280;56357;52.304;4.870;2022-07-12T01:18:38;102670.19;;;21.90;59.18
69245;BME280;56357;52.304;4.870;2022-07-12T01:21:07;102656.06;;;21.90;59.15
69245;BME280;56357;52.304;4.870;2022-07-12T01:23:34;102657.47;;;21.88;59.22
69245;BME280;56357;52.304;4.870;2022-07-12T01:26:02;102640.47;;;21.82;59.14
69245;BME280;56357;52.304;4.870;2022-07-12T01:28:29;102646.38;;;21.81;59.23
69245;BME280;56357;52.304;4.870;2022-07-12T01:30:56;102637.28;;;21.79;59.30
69245;BME280;56357;52.304;4.870;2022-07-12T01:33:24;102637.66;;;21.82;59.10
69245;BME280;56357;52.304;4.870;2022-07-12T01:35:51;102643.81;;;21.79;59.40
69245;BME280;56357;52.304;4.870;2022-07-12T01:38:18;102638.94;;;21.75;59.31
69245;BME280;56357;52.304;4.870;2022-07-12T01:40:44;102643.38;;;21.71;59.44
69245;BME280;56357;52.304;4.870;2022-07-12T01:43:11;102639.16;;;21.68;59.44
69245;BME280;56357;52.304;4.870;2022-07-12T01:45:37;102650.66;;;21.67;59.58
69245;BME280;56357;52.304;4.870;2022-07-12T01:48:04;102654.06;;;21.69;59.70
69245;BME280;56357;52.304;4.870;2022-07-12T01:50:31;102659.13;;;21.67;59.60
69245;BME280;56357;52.304;4.870;2022-07-12T01:52:57;102656.31;;;21.67;59.66
69245;BME280;56357;52.304;4.870;2022-07-12T01:55:23;102657.69;;;21.64;59.46
69245;BME280;56357;52.304;4.870;2022-07-12T01:57:50;102657.16;;;21.67;59.34
69245;BME280;56357;52.304;4.870;2022-07-12T02:00:17;102659.06;;;21.62;59.52
69245;BME280;56357;52.304;4.870;2022-07-12T02:02:45;102675.72;;;21.63;59.25
69245;BME280;56357;52.304;4.870;2022-07-12T02:05:12;102661.63;;;21.63;59.26
69245;BME280;56357;52.304;4.870;2022-07-12T02:07:39;102659.34;;;21.60;59.63
69245;BME280;56357;52.304;4.870;2022-07-12T02:10:07;102660.44;;;21.59;59.58
69245;BME280;56357;52.304;4.870;2022-07-12T02:12:34;102659.00;;;21.57;59.60
69245;BME280;56357;52.304;4.870;2022-07-12T02:15:01;102659.84;;;21.57;59.64
69245;BME280;56357;52.304;4.870;2022-07-12T02:17:28;102662.34;;;21.54;59.42
69245;BME280;56357;52.304;4.870;2022-07-12T02:19:55;102658.69;;;21.53;59.46
69245;BME280;56357;52.304;4.870;2022-07-12T02:22:21;102654.72;;;21.54;59.50
69245;BME280;56357;52.304;4.870;2022-07-12T02:24:48;102648.56;;;21.57;59.48
69245;BME280;56357;52.304;4.870;2022-07-12T02:27:15;102641.50;;;21.55;59.48
69245;BME280;56357;52.304;4.870;2022-07-12T02:29:42;102637.75;;;21.49;59.57
69245;BME280;56357;52.304;4.870;2022-07-12T02:32:08;102642.00;;;21.52;59.37
69245;BME280;56357;52.304;4.870;2022-07-12T02:34:35;102640.31;;;21.51;59.47
69245;BME280;56357;52.304;4.870;2022-07-12T02:37:01;102652.44;;;21.51;59.57
69245;BME280;56357;52.304;4.870;2022-07-12T02:39:28;102646.22;;;21.49;59.50
69245;BME280;56357;52.304;4.870;2022-07-12T02:41:54;102645.28;;;21.44;59.65
69245;BME280;56357;52.304;4.870;2022-07-12T02:44:21;102653.50;;;21.45;59.71
69245;BME280;56357;52.304;4.870;2022-07-12T02:46:47;102650.06;;;21.43;59.70
69245;BME280;56357;52.304;4.870;2022-07-12T02:49:14;102654.00;;;21.42;59.49
69245;BME280;56357;52.304;4.870;2022-07-12T02:51:40;102664.44;;;21.42;59.69
69245;BME280;56357;52.304;4.870;2022-07-12T02:54:07;102656.22;;;21.40;59.59
69245;BME280;56357;52.304;4.870;2022-07-12T02:56:33;102659.94;;;21.46;59.79
69245;BME280;56357;52.304;4.870;2022-07-12T02:58:59;102668.69;;;21.44;59.62
69245;BME280;56357;52.304;4.870;2022-07-12T03:01:26;102666.66;;;21.40;59.51
69245;BME280;56357;52.304;4.870;2022-07-12T03:03:52;102660.66;;;21.36;59.52
69245;BME280;56357;52.304;4.870;2022-07-12T03:06:19;102675.88;;;21.35;59.66
69245;BME280;56357;52.304;4.870;2022-07-12T03:08:45;102669.06;;;21.31;59.63
69245;BME280;56357;52.304;4.870;2022-07-12T03:11:11;102679.03;;;21.39;59.47
69245;BME280;56357;52.304;4.870;2022-07-12T03:13:38;102670.50;;;21.34;59.48
69245;BME280;56357;52.304;4.870;2022-07-12T03:16:05;102675.03;;;21.35;59.67
69245;BME280;56357;52.304;4.870;2022-07-12T03:18:32;102672.19;;;21.35;59.37
69245;BME280;56357;52.304;4.870;2022-07-12T03:20:58;102672.13;;;21.30;59.68
69245;BME280;56357;52.304;4.870;2022-07-12T03:23:25;102666.22;;;21.31;59.65
69245;BME280;56357;52.304;4.870;2022-07-12T03:25:51;102666.50;;;21.30;59.57
69245;BME280;56357;52.304;4.870;2022-07-12T03:28:18;102670.69;;;21.27;59.91
69245;BME280;56357;52.304;4.870;2022-07-12T03:30:44;102655.41;;;21.23;59.66
69245;BME280;56357;52.304;4.870;2022-07-12T03:33:11;102661.13;;;21.28;59.62
69245;BME280;56357;52.304;4.870;2022-07-12T03:35:37;102673.81;;;21.31;59.49
69245;BME280;56357;52.304;4.870;2022-07-12T03:38:03;102668.78;;;21.33;59.37
69245;BME280;56357;52.304;4.870;2022-07-12T03:40:31;102673.00;;;21.30;59.49
69245;BME280;56357;52.304;4.870;2022-07-12T03:42:59;102674.84;;;21.25;59.39
69245;BME280;56357;52.304;4.870;2022-07-12T03:45:26;102674.34;;;21.28;59.39
69245;BME280;56357;52.304;4.870;2022-07-12T03:47:52;102671.00;;;21.31;59.11
69245;BME280;56357;52.304;4.870;2022-07-12T03:50:19;102665.91;;;21.28;59.45
69245;BME280;56357;52.304;4.870;2022-07-12T03:52:45;102674.69;;;21.31;59.38
69245;BME280;56357;52.304;4.870;2022-07-12T03:55:12;102669.59;;;21.28;59.35
69245;BME280;56357;52.304;4.870;2022-07-12T03:57:39;102670.78;;;21.32;59.22
69245;BME280;56357;52.304;4.870;2022-07-12T04:00:07;102663.34;;;21.26;59.09
69245;BME280;56357;52.304;4.870;2022-07-12T04:02:36;102665.38;;;21.31;59.21
69245;BME280;56357;52.304;4.870;2022-07-12T04:05:03;102663.94;;;21.28;59.31
69245;BME280;56357;52.304;4.870;2022-07-12T04:07:30;102665.13;;;21.32;59.23
69245;BME280;56357;52.304;4.870;2022-07-12T04:09:56;102661.19;;;21.33;58.97
69245;BME280;56357;52.304;4.870;2022-07-12T04:12:22;102669.06;;;21.31;59.37
69245;BME280;56357;52.304;4.870;2022-07-12T04:14:49;102667.16;;;21.37;59.17
69245;BME280;56357;52.304;4.870;2022-07-12T04:17:15;102672.78;;;21.37;59.28
69245;BME280;56357;52.304;4.870;2022-07-12T04:19:42;102670.91;;;21.42;59.10
69245;BME280;56357;52.304;4.870;2022-07-12T04:22:08;102670.91;;;21.42;58.94
69245;BME280;56357;52.304;4.870;2022-07-12T04:24:34;102674.66;;;21.48;59.12
69245;BME280;56357;52.304;4.870;2022-07-12T04:27:01;102677.81;;;21.51;59.18
69245;BME280;56357;52.304;4.870;2022-07-12T04:29:28;102680.09;;;21.54;59.00
69245;BME280;56357;52.304;4.870;2022-07-12T04:31:54;102679.56;;;21.57;58.83
69245;BME280;56357;52.304;4.870;2022-07-12T04:34:20;102685.22;;;21.57;58.96
69245;BME280;56357;52.304;4.870;2022-07-12T04:36:47;102677.63;;;21.58;59.22
69245;BME280;56357;52.304;4.870;2022-07-12T04:39:14;102680.16;;;21.59;59.12
69245;BME280;56357;52.304;4.870;2022-07-12T04:41:41;102676.25;;;21.60;58.41
69245;BME280;56357;52.304;4.870;2022-07-12T04:44:08;102674.63;;;21.64;59.01
69245;BME280;56357;52.304;4.870;2022-07-12T04:46:34;102676.00;;;21.62;59.08
69245;BME280;56357;52.304;4.870;2022-07-12T04:49:01;102674.31;;;21.82;58.58
69245;BME280;56357;52.304;4.870;2022-07-12T04:51:27;102675.22;;;22.10;57.97
69245;BME280;56357;52.304;4.870;2022-07-12T04:53:54;102682.78;;;22.04;58.09
69245;BME280;56357;52.304;4.870;2022-07-12T04:56:21;102676.53;;;21.80;58.71
69245;BME280;56357;52.304;4.870;2022-07-12T04:58:47;102687.19;;;21.78;58.81
69245;BME280;56357;52.304;4.870;2022-07-12T05:01:14;102679.72;;;21.84;58.67
69245;BME280;56357;52.304;4.870;2022-07-12T05:03:40;102685.59;;;21.82;58.92
69245;BME280;56357;52.304;4.870;2022-07-12T05:06:08;102688.19;;;21.84;59.05
69245;BME280;56357;52.304;4.870;2022-07-12T05:08:34;102692.75;;;21.90;59.14
69245;BME280;56357;52.304;4.870;2022-07-12T05:11:00;102683.47;;;21.90;58.96
69245;BME280;56357;52.304;4.870;2022-07-12T05:13:27;102687.06;;;21.85;59.20
69245;BME280;56357;52.304;4.870;2022-07-12T05:15:53;102689.59;;;21.87;59.13
69245;BME280;56357;52.304;4.870;2022-07-12T05:18:20;102698.16;;;21.92;58.90
69245;BME280;56357;52.304;4.870;2022-07-12T05:20:46;102698.41;;;21.90;59.20
69245;BME280;56357;52.304;4.870;2022-07-12T05:23:13;102698.81;;;21.99;58.88
69245;BME280;56357;52.304;4.870;2022-07-12T05:25:39;102698.53;;;22.22;57.56
69245;BME280;56357;52.304;4.870;2022-07-12T05:28:06;102693.84;;;22.32;57.74
69245;BME280;56357;52.304;4.870;2022-07-12T05:30:32;102699.84;;;22.36;57.53
69245;BME280;56357;52.304;4.870;2022-07-12T05:32:59;102700.34;;;22.33;57.78
69245;BME280;56357;52.304;4.870;2022-07-12T05:35:25;102708.31;;;22.36;58.18
69245;BME280;56357;52.304;4.870;2022-07-12T05:37:52;102710.59;;;22.39;57.98
69245;BME280;56357;52.304;4.870;2022-07-12T05:40:18;102698.13;;;22.35;58.28
69245;BME280;56357;52.304;4.870;2022-07-12T05:42:45;102700.66;;;22.36;58.50
69245;BME280;56357;52.304;4.870;2022-07-12T05:45:12;102704.00;;;22.55;58.10
69245;BME280;56357;52.304;4.870;2022-07-12T05:47:38;102706.09;;;22.64;57.83
69245;BME280;56357;52.304;4.870;2022-07-12T05:50:05;102706.78;;;22.77;57.59
69245;BME280;56357;52.304;4.870;2022-07-12T05:52:32;102699.63;;;22.69;58.42
69245;BME280;56357;52.304;4.870;2022-07-12T05:55:16;102711.53;;;22.71;58.70
69245;BME280;56357;52.304;4.870;2022-07-12T05:57:42;102709.28;;;22.73;59.26
69245;BME280;56357;52.304;4.870;2022-07-12T06:00:09;102705.72;;;22.83;58.88
69245;BME280;56357;52.304;4.870;2022-07-12T06:02:36;102718.75;;;22.89;58.51
69245;BME280;56357;52.304;4.870;2022-07-12T06:05:02;102714.50;;;22.86;58.75
69245;BME280;56357;52.304;4.870;2022-07-12T06:07:29;102707.47;;;22.89;58.62
69245;BME280;56357;52.304;4.870;2022-07-12T06:09:55;102710.97;;;23.01;57.83
69245;BME280;56357;52.304;4.870;2022-07-12T06:12:22;102714.38;;;23.03;58.26
69245;BME280;56357;52.304;4.870;2022-07-12T06:14:48;102703.00;;;22.98;58.21
69245;BME280;56357;52.304;4.870;2022-07-12T06:17:15;102711.91;;;23.11;58.05
69245;BME280;56357;52.304;4.870;2022-07-12T06:19:46;102712.13;;;23.05;58.21
69245;BME280;56357;52.304;4.870;2022-07-12T06:22:13;102708.81;;;23.13;57.67
69245;BME280;56357;52.304;4.870;2022-07-12T06:24:39;102710.53;;;23.19;58.15
69245;BME280;56357;52.304;4.870;2022-07-12T06:27:06;102713.91;;;23.11;57.93
69245;BME280;56357;52.304;4.870;2022-07-12T06:29:32;102722.31;;;23.06;58.62
69245;BME280;56357;52.304;4.870;2022-07-12T06:31:59;102715.25;;;23.03;58.94
69245;BME280;56357;52.304;4.870;2022-07-12T06:34:25;102724.03;;;23.07;58.54
69245;BME280;56357;52.304;4.870;2022-07-12T06:36:52;102726.59;;;23.08;58.77
69245;BME280;56357;52.304;4.870;2022-07-12T06:39:18;102724.63;;;23.09;58.42
69245;BME280;56357;52.304;4.870;2022-07-12T06:41:44;102728.84;;;23.11;58.63
69245;BME280;56357;52.304;4.870;2022-07-12T06:44:11;102732.53;;;23.12;58.38
69245;BME280;56357;52.304;4.870;2022-07-12T06:46:37;102732.84;;;23.15;58.51
69245;BME280;56357;52.304;4.870;2022-07-12T06:49:04;102724.94;;;23.17;58.45
69245;BME280;56357;52.304;4.870;2022-07-12T06:51:30;102718.19;;;23.18;58.65
69245;BME280;56357;52.304;4.870;2022-07-12T06:53:56;102722.22;;;23.27;58.15
69245;BME280;56357;52.304;4.870;2022-07-12T06:56:23;102718.63;;;23.32;58.13
69245;BME280;56357;52.304;4.870;2022-07-12T06:58:49;102722.28;;;23.32;58.04
69245;BME280;56357;52.304;4.870;2022-07-12T07:01:16;102722.06;;;23.39;57.47
69245;BME280;56357;52.304;4.870;2022-07-12T07:03:42;102717.25;;;23.39;58.09
69245;BME280;56357;52.304;4.870;2022-07-12T07:06:09;102713.34;;;23.45;58.18
69245;BME280;56357;52.304;4.870;2022-07-12T07:08:36;102708.28;;;23.47;58.03
69245;BME280;56357;52.304;4.870;2022-07-12T07:11:03;102718.16;;;23.50;57.48
69245;BME280;56357;52.304;4.870;2022-07-12T07:13:29;102716.22;;;23.55;57.49
69245;BME280;56357;52.304;4.870;2022-07-12T07:15:56;102719.13;;;23.66;57.05
69245;BME280;56357;52.304;4.870;2022-07-12T07:18:22;102711.06;;;23.89;56.19
69245;BME280;56357;52.304;4.870;2022-07-12T07:20:49;102714.19;;;23.98;55.99
69245;BME280;56357;52.304;4.870;2022-07-12T07:23:15;102707.19;;;24.05;55.69
69245;BME280;56357;52.304;4.870;2022-07-12T07:25:44;102710.34;;;24.09;55.49
69245;BME280;56357;52.304;4.870;2022-07-12T07:28:11;102710.03;;;24.05;55.20
69245;BME280;56357;52.304;4.870;2022-07-12T07:30:38;102711.47;;;24.08;55.35
69245;BME280;56357;52.304;4.870;2022-07-12T07:33:20;102712.03;;;24.10;55.80
69245;BME280;56357;52.304;4.870;2022-07-12T07:35:48;102708.66;;;24.13;55.38
69245;BME280;56357;52.304;4.870;2022-07-12T07:38:16;102708.63;;;24.08;55.36
69245;BME280;56357;52.304;4.870;2022-07-12T07:40:43;102711.16;;;24.09;55.59
69245;BME280;56357;52.304;4.870;2022-07-12T07:43:09;102701.84;;;24.09;55.56
69245;BME280;56357;52.304;4.870;2022-07-12T07:45:36;102700.41;;;24.06;55.99
69245;BME280;56357;52.304;4.870;2022-07-12T07:48:03;102700.13;;;24.08;56.01
69245;BME280;56357;52.304;4.870;2022-07-12T07:50:29;102705.22;;;24.06;56.37
69245;BME280;56357;52.304;4.870;2022-07-12T07:52:56;102701.28;;;24.07;56.54
69245;BME280;56357;52.304;4.870;2022-07-12T07:55:23;102710.63;;;24.12;56.55
69245;BME280;56357;52.304;4.870;2022-07-12T07:57:50;102718.28;;;24.12;56.04
69245;BME280;56357;52.304;4.870;2022-07-12T08:00:16;102717.69;;;24.15;56.12
69245;BME280;56357;52.304;4.870;2022-07-12T08:02:43;102727.63;;;24.17;56.08
69245;BME280;56357;52.304;4.870;2022-07-12T08:05:09;102731.31;;;24.18;56.15
69245;BME280;56357;52.304;4.870;2022-07-12T08:07:35;102731.31;;;24.18;56.16
69245;BME280;56357;52.304;4.870;2022-07-12T08:10:02;102725.09;;;24.21;56.54
69245;BME280;56357;52.304;4.870;2022-07-12T08:12:28;102722.03;;;24.32;56.02
69245;BME280;56357;52.304;4.870;2022-07-12T08:14:55;102716.09;;;24.34;56.72
69245;BME280;56357;52.304;4.870;2022-07-12T08:17:21;102720.94;;;24.43;56.59
69245;BME280;56357;52.304;4.870;2022-07-12T08:19:48;102711.91;;;24.62;56.17
69245;BME280;56357;52.304;4.870;2022-07-12T08:22:14;102707.97;;;24.63;56.16
69245;BME280;56357;52.304;4.870;2022-07-12T08:24:40;102704.56;;;24.66;55.78
69245;BME280;56357;52.304;4.870;2022-07-12T08:27:07;102698.09;;;24.75;55.31
69245;BME280;56357;52.304;4.870;2022-07-12T08:29:33;102704.91;;;24.89;55.35
69245;BME280;56357;52.304;4.870;2022-07-12T08:32:00;102702.91;;;24.90;54.85
69245;BME280;56357;52.304;4.870;2022-07-12T08:34:27;102706.34;;;24.97;55.24
69245;BME280;56357;52.304;4.870;2022-07-12T08:36:54;102712.28;;;24.95;55.41
69245;BME280;56357;52.304;4.870;2022-07-12T08:39:21;102720.53;;;25.07;55.32
69245;BME280;56357;52.304;4.870;2022-07-12T08:41:47;102710.19;;;25.96;51.92
69245;BME280;56357;52.304;4.870;2022-07-12T08:44:13;102712.81;;;25.68;51.81
69245;BME280;56357;52.304;4.870;2022-07-12T08:46:40;102709.69;;;25.69;51.91
69245;BME280;56357;52.304;4.870;2022-07-12T08:49:07;102707.38;;;25.76;52.28
69245;BME280;56357;52.304;4.870;2022-07-12T08:51:34;102708.22;;;25.87;51.43
69245;BME280;56357;52.304;4.870;2022-07-12T08:54:11;102704.25;;;25.93;51.12
69245;BME280;56357;52.304;4.870;2022-07-12T08:56:43;102700.28;;;25.89;51.00
69245;BME280;56357;52.304;4.870;2022-07-12T08:59:20;102697.13;;;25.90;50.57
69245;BME280;56357;52.304;4.870;2022-07-12T09:01:47;102696.00;;;25.96;52.15
69245;BME280;56357;52.304;4.870;2022-07-12T09:04:23;102704.47;;;26.01;51.95
69245;BME280;56357;52.304;4.870;2022-07-12T09:06:50;102707.31;;;26.01;52.88
69245;BME280;56357;52.304;4.870;2022-07-12T09:09:30;102712.72;;;25.98;52.68
69245;BME280;56357;52.304;4.870;2022-07-12T09:11:57;102709.31;;;25.96;52.97
69245;BME280;56357;52.304;4.870;2022-07-12T09:14:24;102714.19;;;25.95;53.64
69245;BME280;56357;52.304;4.870;2022-07-12T09:19:24;102710.75;;;25.98;53.14
69245;BME280;56357;52.304;4.870;2022-07-12T09:21:53;102708.75;;;25.99;53.15
69245;BME280;56357;52.304;4.870;2022-07-12T09:24:23;102716.69;;;26.02;53.51
69245;BME280;56357;52.304;4.870;2022-07-12T09:26:54;102715.28;;;26.04;52.82
69245;BME280;56357;52.304;4.870;2022-07-12T09:29:22;102712.16;;;26.01;52.51
69245;BME280;56357;52.304;4.870;2022-07-12T09:31:51;102709.03;;;25.97;52.46
69245;BME280;56357;52.304;4.870;2022-07-12T09:34:36;102711.34;;;25.95;52.20
69245;BME280;56357;52.304;4.870;2022-07-12T09:37:20;102729.22;;;25.91;52.13
69245;BME280;56357;52.304;4.870;2022-07-12T09:39:51;102722.41;;;25.92;51.62
69245;BME280;56357;52.304;4.870;2022-07-12T09:42:18;102722.41;;;25.92;52.13
69245;BME280;56357;52.304;4.870;2022-07-12T09:44:45;102709.88;;;26.03;52.47
69245;BME280;56357;52.304;4.870;2022-07-12T09:47:13;102715.56;;;26.03;52.08
69245;BME280;56357;52.304;4.870;2022-07-12T09:49:42;102720.97;;;25.94;52.34
69245;BME280;56357;52.304;4.870;2022-07-12T09:52:24;102714.44;;;25.94;51.86
69245;BME280;56357;52.304;4.870;2022-07-12T09:54:53;102708.19;;;25.92;51.70
69245;BME280;56357;52.304;4.870;2022-07-12T09:57:20;102707.94;;;25.93;51.89
69245;BME280;56357;52.304;4.870;2022-07-12T09:59:50;102708.75;;;25.99;51.07
69245;BME280;56357;52.304;4.870;2022-07-12T10:02:17;102709.88;;;26.03;51.04
69245;BME280;56357;52.304;4.870;2022-07-12T10:04:45;102706.47;;;26.01;51.29
69245;BME280;56357;52.304;4.870;2022-07-12T10:07:12;102707.88;;;26.03;51.42
69245;BME280;56357;52.304;4.870;2022-07-12T10:09:42;102709.59;;;26.04;51.34
69245;BME280;56357;52.304;4.870;2022-07-12T10:12:10;102712.72;;;26.03;50.78
69245;BME280;56357;52.304;4.870;2022-07-12T10:14:38;102709.59;;;26.04;51.17
69245;BME280;56357;52.304;4.870;2022-07-12T10:17:06;102719.22;;;26.03;50.73
69245;BME280;56357;52.304;4.870;2022-07-12T10:19:34;102714.72;;;26.07;50.50
69245;BME280;56357;52.304;4.870;2022-07-12T10:22:03;102712.72;;;26.08;50.73
69245;BME280;56357;52.304;4.870;2022-07-12T10:29:49;102726.94;;;26.08;50.44
69245;BME280;56357;52.304;4.870;2022-07-12T10:32:24;102720.09;;;26.09;50.04
69245;BME280;56357;52.304;4.870;2022-07-12T10:35:04;102717.25;;;26.09;49.87
69245;BME280;56357;52.304;4.870;2022-07-12T10:37:31;102717.25;;;26.14;49.77
69245;BME280;56357;52.304;4.870;2022-07-12T10:40:18;102722.59;;;26.20;50.14
69245;BME280;56357;52.304;4.870;2022-07-12T10:47:59;102719.47;;;26.27;49.49
69245;BME280;56357;52.304;4.870;2022-07-12T10:56:09;102716.56;;;26.37;48.59
69245;BME280;56357;52.304;4.870;2022-07-12T10:58:38;102713.44;;;26.39;48.42
69245;BME280;56357;52.304;4.870;2022-07-12T11:01:27;102715.41;;;26.38;48.57
69245;BME280;56357;52.304;4.870;2022-07-12T11:06:26;102714.25;;;26.49;48.88
69245;BME280;56357;52.304;4.870;2022-07-12T11:11:21;102706.84;;;26.48;49.46
69245;BME280;56357;52.304;4.870;2022-07-12T11:13:48;102721.00;;;26.53;48.94
69245;BME280;56357;52.304;4.870;2022-07-12T11:16:15;102710.75;;;26.62;48.79
69245;BME280;56357;52.304;4.870;2022-07-12T11:18:42;102713.00;;;26.70;47.59
69245;BME280;56357;52.304;4.870;2022-07-12T11:21:09;102706.16;;;26.71;47.98
69245;BME280;56357;52.304;4.870;2022-07-12T11:23:36;102698.19;;;26.73;47.42
69245;BME280;56357;52.304;4.870;2022-07-12T11:26:06;102701.03;;;26.73;48.77
69245;BME280;56357;52.304;4.870;2022-07-12T11:28:33;102696.16;;;26.79;48.16
69245;BME280;56357;52.304;4.870;2022-07-12T11:31:04;102697.00;;;26.79;48.18
69245;BME280;56357;52.304;4.870;2022-07-12T11:33:36;102700.97;;;26.78;48.07
69245;BME280;56357;52.304;4.870;2022-07-12T11:36:04;102686.22;;;26.76;48.35
69245;BME280;56357;52.304;4.870;2022-07-12T11:38:32;102689.84;;;26.82;47.78
69245;BME280;56357;52.304;4.870;2022-07-12T11:41:01;102698.94;;;26.84;48.01
69245;BME280;56357;52.304;4.870;2022-07-12T11:43:29;102702.66;;;26.84;47.95
69245;BME280;56357;52.304;4.870;2022-07-12T11:45:56;102688.09;;;26.91;47.67
69245;BME280;56357;52.304;4.870;2022-07-12T11:48:23;102692.94;;;26.90;47.50
69245;BME280;56357;52.304;4.870;2022-07-12T11:50:51;102690.66;;;26.92;46.75
69245;BME280;56357;52.304;4.870;2022-07-12T11:53:20;102690.25;;;27.04;46.74
69245;BME280;56357;52.304;4.870;2022-07-12T11:55:49;102691.06;;;27.09;47.40
69245;BME280;56357;52.304;4.870;2022-07-12T11:58:17;102689.88;;;27.15;46.44
69245;BME280;56357;52.304;4.870;2022-07-12T12:00:45;102687.59;;;27.17;46.32
69245;BME280;56357;52.304;4.870;2022-07-12T12:03:13;102684.09;;;27.26;46.09
69245;BME280;56357;52.304;4.870;2022-07-12T12:05:40;102676.94;;;27.33;45.10
69245;BME280;56357;52.304;4.870;2022-07-12T12:08:07;102677.69;;;27.44;45.80
69245;BME280;56357;52.304;4.870;2022-07-12T12:10:35;102663.34;;;27.54;44.90
69245;BME280;56357;52.304;4.870;2022-07-12T12:13:02;102659.53;;;27.63;44.99
69245;BME280;56357;52.304;4.870;2022-07-12T12:15:31;102655.13;;;27.76;44.52
69245;BME280;56357;52.304;4.870;2022-07-12T12:18:00;102654.16;;;27.85;45.39
69245;BME280;56357;52.304;4.870;2022-07-12T12:20:29;102653.22;;;27.95;43.69
69245;BME280;56357;52.304;4.870;2022-07-12T12:22:58;102673.06;;;28.00;43.59
69245;BME280;56357;52.304;4.870;2022-07-12T12:25:26;102664.75;;;28.03;42.38
69245;BME280;56357;52.304;4.870;2022-07-12T12:30:20;102655.41;;;28.22;43.13
69245;BME280;56357;52.304;4.870;2022-07-12T12:32:51;102667.03;;;28.25;43.12
69245;BME280;56357;52.304;4.870;2022-07-12T12:35:29;102662.75;;;28.28;43.33
69245;BME280;56357;52.304;4.870;2022-07-12T12:38:01;102658.94;;;28.32;43.28
69245;BME280;56357;52.304;4.870;2022-07-12T12:40:30;102660.34;;;28.35;43.52
69245;BME280;56357;52.304;4.870;2022-07-12T12:43:11;102651.88;;;28.30;43.70
69245;BME280;56357;52.304;4.870;2022-07-12T12:45:55;102656.78;;;28.24;42.41
69245;BME280;56357;52.304;4.870;2022-07-12T12:48:29;102644.94;;;28.17;43.63
69245;BME280;56357;52.304;4.870;2022-07-12T12:51:10;102654.00;;;28.19;43.85
69245;BME280;56357;52.304;4.870;2022-07-12T12:53:38;102646.63;;;28.18;43.75
69245;BME280;56357;52.304;4.870;2022-07-12T12:56:11;102644.94;;;28.17;43.97
69245;BME280;56357;52.304;4.870;2022-07-12T12:58:38;102647.69;;;28.22;43.95
69245;BME280;56357;52.304;4.870;2022-07-12T13:01:05;102655.66;;;28.25;43.76
69245;BME280;56357;52.304;4.870;2022-07-12T13:03:32;102644.25;;;28.25;43.56
69245;BME280;56357;52.304;4.870;2022-07-12T13:05:59;102655.56;;;28.30;43.69
69245;BME280;56357;52.304;4.870;2022-07-12T13:08:26;102653.25;;;28.32;43.71
69245;BME280;56357;52.304;4.870;2022-07-12T13:10:54;102650.63;;;28.36;43.43
69245;BME280;56357;52.304;4.870;2022-07-12T13:13:36;102642.94;;;28.36;43.35
69245;BME280;56357;52.304;4.870;2022-07-12T13:16:03;102649.50;;;28.37;42.73
69245;BME280;56357;52.304;4.870;2022-07-12T13:18:30;102646.63;;;28.37;42.94